sensor_id;sensor_type;location;lat;lon;timestamp;P1;durP1;ratioP1;P2;durP2;ratioP2
20154;SDS011;10238;49.556;10.956;2024-03-22T00:01:55;8.98;;;7.78;;
20154;SDS011;10238;49.556;10.956;2024-03-22T00:04:43;8.68;;;7.78;;
20154;SDS011;10238;49.556;10.956;2024-03-22T00:07:29;9.95;;;8.18;;
20154;SDS011;10238;49.556;10.956;2024-03-22T00:10:16;10.02;;;8.40;;
20154;SDS011;10238;49.556;10.956;2024-03-22T00:13:01;9.63;;;8.13;;
20154;SDS011;10238;49.556;10.956;2024-03-22T00:15:48;10.43;;;8.32;;
20154;SDS011;10238;49.556;10.956;2024-03-22T00:18:34;9.43;;;7.32;;
20154;SDS011;10238;49.556;10.956;2024-03-22T00:21:22;11.18;;;8.40;;
20154;SDS011;10238;49.556;10.956;2024-03-22T00:24:08;11.35;;;8.13;;
20154;SDS011;10238;49.556;10.956;2024-03-22T00:26:54;10.27;;;8.25;;
20154;SDS011;10238;49.556;10.956;2024-03-22T00:29:40;13.15;;;8.75;;
20154;SDS011;10238;49.556;10.956;2024-03-22T00:32:27;13.85;;;9.15;;
20154;SDS011;10238;49.556;10.956;2024-03-22T00:35:12;11.60;;;8.20;;
20154;SDS011;10238;49.556;10.956;2024-03-22T00:38:01;13.27;;;9.13;;
20154;SDS011;10238;49.556;10.956;2024-03-22T00:40:47;10.75;;;8.48;;
20154;SDS011;10238;49.556;10.956;2024-03-22T00:43:34;13.65;;;9.25;;
20154;SDS011;10238;49.556;10.956;2024-03-22T00:46:20;13.02;;;9.10;;
20154;SDS011;10238;49.556;10.956;2024-03-22T00:49:07;14.30;;;9.57;;
20154;SDS011;10238;49.556;10.956;2024-03-22T00:51:53;13.80;;;8.98;;
20154;SDS011;10238;49.556;10.956;2024-03-22T00:54:42;13.77;;;9.57;;
20154;SDS011;10238;49.556;10.956;2024-03-22T00:57:28;14.30;;;9.57;;
20154;SDS011;10238;49.556;10.956;2024-03-22T01:00:15;16.95;;;10.60;;
20154;SDS011;10238;49.556;10.956;2024-03-22T01:03:01;15.05;;;10.73;;
20154;SDS011;10238;49.556;10.956;2024-03-22T01:05:48;12.63;;;9.43;;
20154;SDS011;10238;49.556;10.956;2024-03-22T01:08:34;17.02;;;10.13;;
20154;SDS011;10238;49.556;10.956;2024-03-22T01:11:23;12.30;;;9.57;;
20154;SDS011;10238;49.556;10.956;2024-03-22T01:14:09;15.82;;;11.05;;
20154;SDS011;10238;49.556;10.956;2024-03-22T01:16:56;13.35;;;10.32;;
20154;SDS011;10238;49.556;10.956;2024-03-22T01:19:42;13.45;;;10.25;;
20154;SDS011;10238;49.556;10.956;2024-03-22T01:22:29;15.15;;;10.50;;
20154;SDS011;10238;49.556;10.956;2024-03-22T01:25:14;12.57;;;10.10;;
20154;SDS011;10238;49.556;10.956;2024-03-22T01:28:03;16.25;;;11.43;;
20154;SDS011;10238;49.556;10.956;2024-03-22T01:30:50;13.63;;;9.88;;
20154;SDS011;10238;49.556;10.956;2024-03-22T01:33:38;12.57;;;10.43;;
20154;SDS011;10238;49.556;10.956;2024-03-22T01:36:25;15.73;;;11.07;;
20154;SDS011;10238;49.556;10.956;2024-03-22T01:39:11;15.60;;;10.35;;
20154;SDS011;10238;49.556;10.956;2024-03-22T01:41:59;12.50;;;9.00;;
20154;SDS011;10238;49.556;10.956;2024-03-22T01:44:48;13.85;;;9.65;;
20154;SDS011;10238;49.556;10.956;2024-03-22T01:47:35;15.82;;;10.15;;
20154;SDS011;10238;49.556;10.956;2024-03-22T01:50:21;16.02;;;9.68;;
20154;SDS011;10238;49.556;10.956;2024-03-22T01:53:08;17.42;;;10.55;;
20154;SDS011;10238;49.556;10.956;2024-03-22T01:55:54;19.40;;;10.88;;
20154;SDS011;10238;49.556;10.956;2024-03-22T01:58:41;18.67;;;10.57;;
20154;SDS011;10238;49.556;10.956;2024-03-22T02:01:29;14.18;;;8.93;;
20154;SDS011;10238;49.556;10.956;2024-03-22T02:04:16;13.75;;;9.50;;
20154;SDS011;10238;49.556;10.956;2024-03-22T02:07:02;14.63;;;9.80;;
20154;SDS011;10238;49.556;10.956;2024-03-22T02:09:48;13.85;;;9.40;;
20154;SDS011;10238;49.556;10.956;2024-03-22T02:12:34;13.90;;;9.55;;
20154;SDS011;10238;49.556;10.956;2024-03-22T02:15:21;15.75;;;9.75;;
20154;SDS011;10238;49.556;10.956;2024-03-22T02:18:08;15.07;;;8.77;;
20154;SDS011;10238;49.556;10.956;2024-03-22T02:20:56;16.08;;;8.95;;
20154;SDS011;10238;49.556;10.956;2024-03-22T02:23:44;12.68;;;8.80;;
20154;SDS011;10238;49.556;10.956;2024-03-22T02:26:30;13.10;;;8.80;;
20154;SDS011;10238;49.556;10.956;2024-03-22T02:29:16;14.82;;;9.40;;
20154;SDS011;10238;49.556;10.956;2024-03-22T02:32:03;14.23;;;9.35;;
20154;SDS011;10238;49.556;10.956;2024-03-22T02:34:49;13.73;;;8.52;;
20154;SDS011;10238;49.556;10.956;2024-03-22T02:37:35;14.57;;;9.00;;
20154;SDS011;10238;49.556;10.956;2024-03-22T02:40:22;13.05;;;8.77;;
20154;SDS011;10238;49.556;10.956;2024-03-22T02:43:09;13.68;;;9.10;;
20154;SDS011;10238;49.556;10.956;2024-03-22T02:45:55;13.52;;;8.90;;
20154;SDS011;10238;49.556;10.956;2024-03-22T02:48:42;12.25;;;7.90;;
20154;SDS011;10238;49.556;10.956;2024-03-22T02:51:27;12.93;;;8.68;;
20154;SDS011;10238;49.556;10.956;2024-03-22T02:54:14;15.90;;;9.35;;
20154;SDS011;10238;49.556;10.956;2024-03-22T02:57:01;14.32;;;9.45;;
20154;SDS011;10238;49.556;10.956;2024-03-22T02:59:48;14.60;;;9.20;;
20154;SDS011;10238;49.556;10.956;2024-03-22T03:02:34;12.25;;;8.45;;
20154;SDS011;10238;49.556;10.956;2024-03-22T03:05:22;13.27;;;8.88;;
20154;SDS011;10238;49.556;10.956;2024-03-22T03:08:09;13.90;;;8.65;;
20154;SDS011;10238;49.556;10.956;2024-03-22T03:10:54;12.38;;;8.02;;
20154;SDS011;10238;49.556;10.956;2024-03-22T03:13:42;10.13;;;7.63;;
20154;SDS011;10238;49.556;10.956;2024-03-22T03:16:28;13.80;;;8.68;;
20154;SDS011;10238;49.556;10.956;2024-03-22T03:19:14;13.75;;;8.48;;
20154;SDS011;10238;49.556;10.956;2024-03-22T03:22:01;11.75;;;8.18;;
20154;SDS011;10238;49.556;10.956;2024-03-22T03:24:47;10.65;;;7.20;;
20154;SDS011;10238;49.556;10.956;2024-03-22T03:27:33;11.98;;;8.40;;
20154;SDS011;10238;49.556;10.956;2024-03-22T03:30:21;11.77;;;7.80;;
20154;SDS011;10238;49.556;10.956;2024-03-22T03:33:07;13.05;;;7.97;;
20154;SDS011;10238;49.556;10.956;2024-03-22T03:35:54;11.38;;;7.00;;
20154;SDS011;10238;49.556;10.956;2024-03-22T03:38:40;12.82;;;8.23;;
20154;SDS011;10238;49.556;10.956;2024-03-22T03:41:26;11.82;;;7.70;;
20154;SDS011;10238;49.556;10.956;2024-03-22T03:44:12;13.57;;;7.55;;
20154;SDS011;10238;49.556;10.956;2024-03-22T03:47:01;12.80;;;8.48;;
20154;SDS011;10238;49.556;10.956;2024-03-22T03:49:47;12.93;;;7.82;;
20154;SDS011;10238;49.556;10.956;2024-03-22T03:52:33;12.38;;;8.13;;
20154;SDS011;10238;49.556;10.956;2024-03-22T03:55:19;10.68;;;8.13;;
20154;SDS011;10238;49.556;10.956;2024-03-22T03:58:07;12.20;;;7.82;;
20154;SDS011;10238;49.556;10.956;2024-03-22T04:00:53;13.63;;;8.63;;
20154;SDS011;10238;49.556;10.956;2024-03-22T04:03:41;13.55;;;8.75;;
20154;SDS011;10238;49.556;10.956;2024-03-22T04:06:26;11.68;;;7.97;;
20154;SDS011;10238;49.556;10.956;2024-03-22T04:09:13;11.18;;;8.07;;
20154;SDS011;10238;49.556;10.956;2024-03-22T04:11:59;11.52;;;8.15;;
20154;SDS011;10238;49.556;10.956;2024-03-22T04:14:45;16.88;;;7.78;;
20154;SDS011;10238;49.556;10.956;2024-03-22T04:17:31;11.65;;;7.43;;
20154;SDS011;10238;49.556;10.956;2024-03-22T04:20:19;15.07;;;8.55;;
20154;SDS011;10238;49.556;10.956;2024-03-22T04:23:04;13.05;;;8.30;;
20154;SDS011;10238;49.556;10.956;2024-03-22T04:25:52;14.50;;;8.75;;
20154;SDS011;10238;49.556;10.956;2024-03-22T04:28:39;10.82;;;7.88;;
20154;SDS011;10238;49.556;10.956;2024-03-22T04:31:25;11.40;;;7.68;;
20154;SDS011;10238;49.556;10.956;2024-03-22T04:34:11;12.10;;;8.30;;
20154;SDS011;10238;49.556;10.956;2024-03-22T04:36:59;11.52;;;7.68;;
20154;SDS011;10238;49.556;10.956;2024-03-22T04:39:46;13.00;;;8.32;;
20154;SDS011;10238;49.556;10.956;2024-03-22T04:42:33;12.40;;;7.75;;
20154;SDS011;10238;49.556;10.956;2024-03-22T04:45:19;11.23;;;7.72;;
20154;SDS011;10238;49.556;10.956;2024-03-22T04:48:06;11.57;;;7.68;;
20154;SDS011;10238;49.556;10.956;2024-03-22T04:50:52;11.45;;;7.80;;
20154;SDS011;10238;49.556;10.956;2024-03-22T04:53:40;11.90;;;7.47;;
20154;SDS011;10238;49.556;10.956;2024-03-22T04:56:26;13.13;;;7.50;;
20154;SDS011;10238;49.556;10.956;2024-03-22T04:59:12;9.30;;;6.72;;
20154;SDS011;10238;49.556;10.956;2024-03-22T05:01:58;10.98;;;6.88;;
20154;SDS011;10238;49.556;10.956;2024-03-22T05:04:44;10.77;;;7.55;;
20154;SDS011;10238;49.556;10.956;2024-03-22T05:07:30;10.15;;;6.85;;
20154;SDS011;10238;49.556;10.956;2024-03-22T05:10:18;9.07;;;6.95;;
20154;SDS011;10238;49.556;10.956;2024-03-22T05:13:04;9.85;;;6.57;;
20154;SDS011;10238;49.556;10.956;2024-03-22T05:15:50;8.35;;;6.20;;
20154;SDS011;10238;49.556;10.956;2024-03-22T05:18:36;11.02;;;6.57;;
20154;SDS011;10238;49.556;10.956;2024-03-22T05:21:23;10.60;;;6.63;;
20154;SDS011;10238;49.556;10.956;2024-03-22T05:24:08;8.95;;;6.78;;
20154;SDS011;10238;49.556;10.956;2024-03-22T05:26:56;8.70;;;6.40;;
20154;SDS011;10238;49.556;10.956;2024-03-22T05:29:44;9.40;;;6.35;;
20154;SDS011;10238;49.556;10.956;2024-03-22T05:32:30;9.98;;;6.55;;
20154;SDS011;10238;49.556;10.956;2024-03-22T05:35:16;11.90;;;7.35;;
20154;SDS011;10238;49.556;10.956;2024-03-22T05:38:03;12.57;;;7.47;;
20154;SDS011;10238;49.556;10.956;2024-03-22T05:40:50;12.25;;;7.93;;
20154;SDS011;10238;49.556;10.956;2024-03-22T05:43:37;8.77;;;6.40;;
20154;SDS011;10238;49.556;10.956;2024-03-22T05:46:23;9.25;;;6.35;;
20154;SDS011;10238;49.556;10.956;2024-03-22T05:49:09;9.88;;;7.07;;
20154;SDS011;10238;49.556;10.956;2024-03-22T05:51:55;10.95;;;6.65;;
20154;SDS011;10238;49.556;10.956;2024-03-22T05:54:41;15.85;;;8.52;;
20154;SDS011;10238;49.556;10.956;2024-03-22T05:57:28;14.15;;;8.13;;
20154;SDS011;10238;49.556;10.956;2024-03-22T06:00:16;11.88;;;7.53;;
20154;SDS011;10238;49.556;10.956;2024-03-22T06:03:03;12.02;;;7.15;;
20154;SDS011;10238;49.556;10.956;2024-03-22T06:05:51;12.07;;;7.25;;
20154;SDS011;10238;49.556;10.956;2024-03-22T06:08:41;17.23;;;9.85;;
20154;SDS011;10238;49.556;10.956;2024-03-22T06:11:30;15.30;;;9.27;;
20154;SDS011;10238;49.556;10.956;2024-03-22T06:14:16;13.23;;;8.18;;
20154;SDS011;10238;49.556;10.956;2024-03-22T06:17:04;14.68;;;8.77;;
20154;SDS011;10238;49.556;10.956;2024-03-22T06:19:50;16.85;;;8.85;;
20154;SDS011;10238;49.556;10.956;2024-03-22T06:22:36;17.42;;;9.55;;
20154;SDS011;10238;49.556;10.956;2024-03-22T06:25:23;15.85;;;10.18;;
20154;SDS011;10238;49.556;10.956;2024-03-22T06:28:09;16.83;;;10.77;;
20154;SDS011;10238;49.556;10.956;2024-03-22T06:30:55;19.20;;;11.07;;
20154;SDS011;10238;49.556;10.956;2024-03-22T06:33:43;18.80;;;10.60;;
20154;SDS011;10238;49.556;10.956;2024-03-22T06:36:29;18.88;;;11.25;;
20154;SDS011;10238;49.556;10.956;2024-03-22T06:39:17;15.48;;;9.68;;
20154;SDS011;10238;49.556;10.956;2024-03-22T06:42:04;22.25;;;12.70;;
20154;SDS011;10238;49.556;10.956;2024-03-22T06:44:50;15.45;;;9.40;;
20154;SDS011;10238;49.556;10.956;2024-03-22T06:47:36;27.20;;;14.30;;
20154;SDS011;10238;49.556;10.956;2024-03-22T06:50:24;24.35;;;13.60;;
20154;SDS011;10238;49.556;10.956;2024-03-22T06:53:12;27.40;;;14.25;;
20154;SDS011;10238;49.556;10.956;2024-03-22T06:55:59;26.88;;;14.70;;
20154;SDS011;10238;49.556;10.956;2024-03-22T06:58:45;24.55;;;13.90;;
20154;SDS011;10238;49.556;10.956;2024-03-22T07:01:32;26.50;;;13.65;;
20154;SDS011;10238;49.556;10.956;2024-03-22T07:04:18;30.08;;;15.18;;
20154;SDS011;10238;49.556;10.956;2024-03-22T07:07:06;29.45;;;14.00;;
20154;SDS011;10238;49.556;10.956;2024-03-22T07:09:53;34.85;;;16.70;;
20154;SDS011;10238;49.556;10.956;2024-03-22T07:12:39;27.42;;;12.57;;
20154;SDS011;10238;49.556;10.956;2024-03-22T07:15:26;27.27;;;14.20;;
20154;SDS011;10238;49.556;10.956;2024-03-22T07:18:12;27.83;;;14.10;;
20154;SDS011;10238;49.556;10.956;2024-03-22T07:20:59;31.00;;;14.63;;
20154;SDS011;10238;49.556;10.956;2024-03-22T07:23:47;22.75;;;12.85;;
20154;SDS011;10238;49.556;10.956;2024-03-22T07:26:34;23.80;;;13.90;;
20154;SDS011;10238;49.556;10.956;2024-03-22T07:29:20;25.90;;;14.50;;
20154;SDS011;10238;49.556;10.956;2024-03-22T07:32:07;27.48;;;15.23;;
20154;SDS011;10238;49.556;10.956;2024-03-22T07:34:53;24.67;;;13.73;;
20154;SDS011;10238;49.556;10.956;2024-03-22T07:37:40;25.42;;;14.50;;
20154;SDS011;10238;49.556;10.956;2024-03-22T07:40:27;28.20;;;15.30;;
20154;SDS011;10238;49.556;10.956;2024-03-22T07:43:14;27.85;;;15.07;;
20154;SDS011;10238;49.556;10.956;2024-03-22T07:46:01;24.73;;;13.90;;
20154;SDS011;10238;49.556;10.956;2024-03-22T07:48:50;26.85;;;13.73;;
20154;SDS011;10238;49.556;10.956;2024-03-22T07:51:36;22.23;;;12.35;;
20154;SDS011;10238;49.556;10.956;2024-03-22T07:54:23;24.05;;;14.38;;
20154;SDS011;10238;49.556;10.956;2024-03-22T07:57:10;25.77;;;14.85;;
20154;SDS011;10238;49.556;10.956;2024-03-22T07:59:57;29.48;;;15.48;;
20154;SDS011;10238;49.556;10.956;2024-03-22T08:02:43;26.92;;;14.85;;
20154;SDS011;10238;49.556;10.956;2024-03-22T08:05:29;27.38;;;14.85;;
20154;SDS011;10238;49.556;10.956;2024-03-22T08:08:15;24.08;;;14.55;;
20154;SDS011;10238;49.556;10.956;2024-03-22T08:11:02;25.50;;;14.70;;
20154;SDS011;10238;49.556;10.956;2024-03-22T08:13:49;29.30;;;15.50;;
20154;SDS011;10238;49.556;10.956;2024-03-22T08:16:36;25.83;;;14.15;;
20154;SDS011;10238;49.556;10.956;2024-03-22T08:19:21;29.42;;;16.05;;
20154;SDS011;10238;49.556;10.956;2024-03-22T08:22:08;26.60;;;14.23;;
20154;SDS011;10238;49.556;10.956;2024-03-22T08:24:54;27.35;;;14.88;;
20154;SDS011;10238;49.556;10.956;2024-03-22T08:27:40;23.88;;;13.27;;
20154;SDS011;10238;49.556;10.956;2024-03-22T08:30:29;24.58;;;14.48;;
20154;SDS011;10238;49.556;10.956;2024-03-22T08:33:14;25.63;;;15.05;;
20154;SDS011;10238;49.556;10.956;2024-03-22T08:36:01;26.48;;;15.15;;
20154;SDS011;10238;49.556;10.956;2024-03-22T08:38:47;25.73;;;15.07;;
20154;SDS011;10238;49.556;10.956;2024-03-22T08:41:33;23.50;;;15.05;;
20154;SDS011;10238;49.556;10.956;2024-03-22T08:44:19;24.10;;;14.88;;
20154;SDS011;10238;49.556;10.956;2024-03-22T08:47:07;28.10;;;14.63;;
20154;SDS011;10238;49.556;10.956;2024-03-22T08:49:54;26.40;;;13.80;;
20154;SDS011;10238;49.556;10.956;2024-03-22T08:52:42;24.13;;;14.05;;
20154;SDS011;10238;49.556;10.956;2024-03-22T08:55:28;22.02;;;11.90;;
20154;SDS011;10238;49.556;10.956;2024-03-22T08:58:15;28.60;;;14.73;;
20154;SDS011;10238;49.556;10.956;2024-03-22T09:01:02;28.42;;;14.18;;
20154;SDS011;10238;49.556;10.956;2024-03-22T09:03:49;24.20;;;14.15;;
20154;SDS011;10238;49.556;10.956;2024-03-22T09:06:36;23.17;;;13.80;;
20154;SDS011;10238;49.556;10.956;2024-03-22T09:09:22;26.17;;;14.88;;
20154;SDS011;10238;49.556;10.956;2024-03-22T09:12:09;24.83;;;14.52;;
20154;SDS011;10238;49.556;10.956;2024-03-22T09:14:55;25.42;;;14.43;;
20154;SDS011;10238;49.556;10.956;2024-03-22T09:17:42;20.70;;;12.32;;
20154;SDS011;10238;49.556;10.956;2024-03-22T09:20:29;22.30;;;13.77;;
20154;SDS011;10238;49.556;10.956;2024-03-22T09:23:15;26.17;;;14.57;;
20154;SDS011;10238;49.556;10.956;2024-03-22T09:26:01;23.10;;;14.80;;
20154;SDS011;10238;49.556;10.956;2024-03-22T09:28:48;26.02;;;14.43;;
20154;SDS011;10238;49.556;10.956;2024-03-22T09:31:35;23.15;;;14.35;;
20154;SDS011;10238;49.556;10.956;2024-03-22T09:34:21;24.40;;;14.50;;
20154;SDS011;10238;49.556;10.956;2024-03-22T09:37:08;21.23;;;12.98;;
20154;SDS011;10238;49.556;10.956;2024-03-22T09:39:55;19.33;;;12.15;;
20154;SDS011;10238;49.556;10.956;2024-03-22T09:42:41;27.20;;;12.88;;
20154;SDS011;10238;49.556;10.956;2024-03-22T09:45:29;22.02;;;13.68;;
20154;SDS011;10238;49.556;10.956;2024-03-22T09:48:17;24.35;;;13.38;;
20154;SDS011;10238;49.556;10.956;2024-03-22T09:51:05;23.40;;;13.20;;
20154;SDS011;10238;49.556;10.956;2024-03-22T09:53:54;22.35;;;12.98;;
20154;SDS011;10238;49.556;10.956;2024-03-22T09:56:41;18.40;;;12.20;;
20154;SDS011;10238;49.556;10.956;2024-03-22T09:59:29;18.35;;;11.57;;
20154;SDS011;10238;49.556;10.956;2024-03-22T10:02:16;22.15;;;12.35;;
20154;SDS011;10238;49.556;10.956;2024-03-22T10:05:04;18.02;;;11.27;;
20154;SDS011;10238;49.556;10.956;2024-03-22T10:07:50;19.42;;;11.63;;
20154;SDS011;10238;49.556;10.956;2024-03-22T10:10:39;17.80;;;10.75;;
20154;SDS011;10238;49.556;10.956;2024-03-22T10:13:26;16.65;;;9.85;;
20154;SDS011;10238;49.556;10.956;2024-03-22T10:16:14;15.82;;;10.15;;
20154;SDS011;10238;49.556;10.956;2024-03-22T10:19:01;17.35;;;10.85;;
20154;SDS011;10238;49.556;10.956;2024-03-22T10:21:47;15.60;;;10.38;;
20154;SDS011;10238;49.556;10.956;2024-03-22T10:24:44;16.50;;;10.63;;
20154;SDS011;10238;49.556;10.956;2024-03-22T10:27:32;16.50;;;10.75;;
20154;SDS011;10238;49.556;10.956;2024-03-22T10:30:18;15.55;;;10.32;;
20154;SDS011;10238;49.556;10.956;2024-03-22T10:33:04;12.45;;;9.00;;
20154;SDS011;10238;49.556;10.956;2024-03-22T10:35:51;15.90;;;9.48;;
20154;SDS011;10238;49.556;10.956;2024-03-22T10:38:39;15.73;;;9.93;;
20154;SDS011;10238;49.556;10.956;2024-03-22T10:41:26;13.95;;;8.82;;
20154;SDS011;10238;49.556;10.956;2024-03-22T10:44:13;10.25;;;7.75;;
20154;SDS011;10238;49.556;10.956;2024-03-22T10:47:00;9.82;;;6.72;;
20154;SDS011;10238;49.556;10.956;2024-03-22T10:49:51;8.43;;;6.65;;
20154;SDS011;10238;49.556;10.956;2024-03-22T10:52:54;10.15;;;6.03;;
20154;SDS011;10238;49.556;10.956;2024-03-22T10:55:48;8.90;;;6.15;;
20154;SDS011;10238;49.556;10.956;2024-03-22T10:58:39;11.35;;;7.20;;
20154;SDS011;10238;49.556;10.956;2024-03-22T11:01:28;10.65;;;6.00;;
20154;SDS011;10238;49.556;10.956;2024-03-22T11:04:21;10.82;;;6.15;;
20154;SDS011;10238;49.556;10.956;2024-03-22T11:07:08;10.90;;;6.32;;
20154;SDS011;10238;49.556;10.956;2024-03-22T11:10:00;10.18;;;6.28;;
20154;SDS011;10238;49.556;10.956;2024-03-22T11:12:48;13.57;;;7.75;;
20154;SDS011;10238;49.556;10.956;2024-03-22T11:15:36;12.05;;;6.38;;
20154;SDS011;10238;49.556;10.956;2024-03-22T11:18:24;8.63;;;6.20;;
20154;SDS011;10238;49.556;10.956;2024-03-22T11:21:11;8.60;;;6.25;;
20154;SDS011;10238;49.556;10.956;2024-03-22T11:23:58;9.65;;;6.35;;
20154;SDS011;10238;49.556;10.956;2024-03-22T11:26:46;10.07;;;5.95;;
20154;SDS011;10238;49.556;10.956;2024-03-22T11:29:32;9.48;;;6.35;;
20154;SDS011;10238;49.556;10.956;2024-03-22T11:32:19;7.15;;;4.53;;
20154;SDS011;10238;49.556;10.956;2024-03-22T11:35:06;9.90;;;5.07;;
20154;SDS011;10238;49.556;10.956;2024-03-22T11:37:54;6.03;;;3.80;;
20154;SDS011;10238;49.556;10.956;2024-03-22T11:40:41;4.28;;;3.38;;
20154;SDS011;10238;49.556;10.956;2024-03-22T11:43:28;5.40;;;3.80;;
20154;SDS011;10238;49.556;10.956;2024-03-22T11:46:15;5.53;;;3.28;;
20154;SDS011;10238;49.556;10.956;2024-03-22T11:49:03;3.33;;;3.03;;
20154;SDS011;10238;49.556;10.956;2024-03-22T11:51:52;4.65;;;3.50;;
20154;SDS011;10238;49.556;10.956;2024-03-22T11:54:37;3.78;;;3.20;;
20154;SDS011;10238;49.556;10.956;2024-03-22T11:57:26;5.05;;;3.58;;
20154;SDS011;10238;49.556;10.956;2024-03-22T12:00:13;4.47;;;2.85;;
20154;SDS011;10238;49.556;10.956;2024-03-22T12:03:02;2.45;;;2.22;;
20154;SDS011;10238;49.556;10.956;2024-03-22T12:05:52;2.83;;;2.50;;
20154;SDS011;10238;49.556;10.956;2024-03-22T12:08:42;2.80;;;2.50;;
20154;SDS011;10238;49.556;10.956;2024-03-22T12:11:28;3.17;;;2.42;;
20154;SDS011;10238;49.556;10.956;2024-03-22T12:14:15;4.85;;;3.47;;
20154;SDS011;10238;49.556;10.956;2024-03-22T12:17:01;4.32;;;2.70;;
20154;SDS011;10238;49.556;10.956;2024-03-22T12:19:48;3.20;;;2.85;;
20154;SDS011;10238;49.556;10.956;2024-03-22T12:22:34;3.15;;;2.55;;
20154;SDS011;10238;49.556;10.956;2024-03-22T12:25:22;2.17;;;1.95;;
20154;SDS011;10238;49.556;10.956;2024-03-22T12:28:09;2.33;;;2.13;;
20154;SDS011;10238;49.556;10.956;2024-03-22T12:30:55;3.92;;;2.33;;
20154;SDS011;10238;49.556;10.956;2024-03-22T12:33:41;3.72;;;2.42;;
20154;SDS011;10238;49.556;10.956;2024-03-22T12:36:27;3.33;;;2.50;;
20154;SDS011;10238;49.556;10.956;2024-03-22T12:39:13;3.33;;;2.50;;
20154;SDS011;10238;49.556;10.956;2024-03-22T12:42:03;2.53;;;2.10;;
20154;SDS011;10238;49.556;10.956;2024-03-22T12:44:50;3.35;;;2.30;;
20154;SDS011;10238;49.556;10.956;2024-03-22T12:47:37;1.55;;;1.45;;
20154;SDS011;10238;49.556;10.956;2024-03-22T12:50:22;5.05;;;1.75;;
20154;SDS011;10238;49.556;10.956;2024-03-22T12:53:10;2.38;;;1.63;;
20154;SDS011;10238;49.556;10.956;2024-03-22T12:55:55;2.15;;;1.90;;
20154;SDS011;10238;49.556;10.956;2024-03-22T12:58:43;1.83;;;1.70;;
20154;SDS011;10238;49.556;10.956;2024-03-22T13:01:30;3.35;;;2.22;;
20154;SDS011;10238;49.556;10.956;2024-03-22T13:04:17;2.75;;;1.52;;
20154;SDS011;10238;49.556;10.956;2024-03-22T13:07:04;1.70;;;1.60;;
20154;SDS011;10238;49.556;10.956;2024-03-22T13:09:50;2.33;;;1.92;;
20154;SDS011;10238;49.556;10.956;2024-03-22T13:12:37;3.00;;;2.03;;
20154;SDS011;10238;49.556;10.956;2024-03-22T13:15:25;3.10;;;2.33;;
20154;SDS011;10238;49.556;10.956;2024-03-22T13:18:10;5.43;;;1.90;;
20154;SDS011;10238;49.556;10.956;2024-03-22T13:20:57;1.90;;;1.80;;
20154;SDS011;10238;49.556;10.956;2024-03-22T13:23:43;2.08;;;1.80;;
20154;SDS011;10238;49.556;10.956;2024-03-22T13:26:30;2.78;;;2.22;;
20154;SDS011;10238;49.556;10.956;2024-03-22T13:29:16;2.63;;;2.08;;
20154;SDS011;10238;49.556;10.956;2024-03-22T13:32:04;2.58;;;1.77;;
20154;SDS011;10238;49.556;10.956;2024-03-22T13:34:51;3.20;;;2.20;;
20154;SDS011;10238;49.556;10.956;2024-03-22T13:37:38;2.35;;;2.13;;
20154;SDS011;10238;49.556;10.956;2024-03-22T13:40:25;3.25;;;2.55;;
20154;SDS011;10238;49.556;10.956;2024-03-22T13:43:11;2.58;;;2.38;;
20154;SDS011;10238;49.556;10.956;2024-03-22T13:45:57;3.40;;;3.10;;
20154;SDS011;10238;49.556;10.956;2024-03-22T13:48:47;3.00;;;2.70;;
20154;SDS011;10238;49.556;10.956;2024-03-22T13:51:34;2.58;;;2.38;;
20154;SDS011;10238;49.556;10.956;2024-03-22T13:54:21;3.20;;;2.88;;
20154;SDS011;10238;49.556;10.956;2024-03-22T13:57:07;3.90;;;2.40;;
20154;SDS011;10238;49.556;10.956;2024-03-22T13:59:54;4.28;;;3.00;;
20154;SDS011;10238;49.556;10.956;2024-03-22T14:02:39;2.95;;;2.38;;
20154;SDS011;10238;49.556;10.956;2024-03-22T14:05:27;2.75;;;2.55;;
20154;SDS011;10238;49.556;10.956;2024-03-22T14:08:13;7.20;;;3.13;;
20154;SDS011;10238;49.556;10.956;2024-03-22T14:11:00;4.32;;;2.63;;
20154;SDS011;10238;49.556;10.956;2024-03-22T14:13:45;3.30;;;3.00;;
20154;SDS011;10238;49.556;10.956;2024-03-22T14:16:33;3.85;;;3.15;;
20154;SDS011;10238;49.556;10.956;2024-03-22T14:19:19;5.18;;;3.88;;
20154;SDS011;10238;49.556;10.956;2024-03-22T14:22:10;4.50;;;3.47;;
20154;SDS011;10238;49.556;10.956;2024-03-22T14:25:00;4.32;;;3.60;;
20154;SDS011;10238;49.556;10.956;2024-03-22T14:27:47;5.20;;;3.38;;
20154;SDS011;10238;49.556;10.956;2024-03-22T14:30:33;4.97;;;3.90;;
20154;SDS011;10238;49.556;10.956;2024-03-22T14:33:20;4.35;;;3.47;;
20154;SDS011;10238;49.556;10.956;2024-03-22T14:36:06;6.57;;;3.63;;
20154;SDS011;10238;49.556;10.956;2024-03-22T14:38:55;4.93;;;3.47;;
20154;SDS011;10238;49.556;10.956;2024-03-22T14:41:41;5.97;;;3.58;;
20154;SDS011;10238;49.556;10.956;2024-03-22T14:44:27;3.70;;;3.38;;
20154;SDS011;10238;49.556;10.956;2024-03-22T14:47:13;4.70;;;3.72;;
20154;SDS011;10238;49.556;10.956;2024-03-22T14:50:00;4.78;;;2.85;;
20154;SDS011;10238;49.556;10.956;2024-03-22T14:52:47;4.47;;;3.47;;
20154;SDS011;10238;49.556;10.956;2024-03-22T14:55:35;5.80;;;3.40;;
20154;SDS011;10238;49.556;10.956;2024-03-22T14:58:21;5.65;;;3.42;;
20154;SDS011;10238;49.556;10.956;2024-03-22T15:01:08;4.60;;;3.70;;
20154;SDS011;10238;49.556;10.956;2024-03-22T15:03:54;5.30;;;3.25;;
20154;SDS011;10238;49.556;10.956;2024-03-22T15:06:41;5.38;;;3.30;;
20154;SDS011;10238;49.556;10.956;2024-03-22T15:09:26;4.32;;;3.15;;
20154;SDS011;10238;49.556;10.956;2024-03-22T15:12:14;3.60;;;2.75;;
20154;SDS011;10238;49.556;10.956;2024-03-22T15:15:00;3.90;;;3.50;;
20154;SDS011;10238;49.556;10.956;2024-03-22T15:17:47;4.75;;;3.30;;
20154;SDS011;10238;49.556;10.956;2024-03-22T15:20:33;5.10;;;3.50;;
20154;SDS011;10238;49.556;10.956;2024-03-22T15:23:20;3.40;;;3.03;;
20154;SDS011;10238;49.556;10.956;2024-03-22T15:26:06;4.93;;;3.42;;
20154;SDS011;10238;49.556;10.956;2024-03-22T15:28:54;4.60;;;3.78;;
20154;SDS011;10238;49.556;10.956;2024-03-22T15:31:39;5.43;;;3.60;;
20154;SDS011;10238;49.556;10.956;2024-03-22T15:34:26;3.72;;;3.35;;
20154;SDS011;10238;49.556;10.956;2024-03-22T15:37:13;4.35;;;2.95;;
20154;SDS011;10238;49.556;10.956;2024-03-22T15:39:58;4.85;;;3.25;;
20154;SDS011;10238;49.556;10.956;2024-03-22T15:42:45;6.53;;;5.22;;
20154;SDS011;10238;49.556;10.956;2024-03-22T15:45:32;6.32;;;4.40;;
20154;SDS011;10238;49.556;10.956;2024-03-22T15:48:19;5.82;;;3.78;;
20154;SDS011;10238;49.556;10.956;2024-03-22T15:51:06;7.18;;;4.50;;
20154;SDS011;10238;49.556;10.956;2024-03-22T15:53:53;6.22;;;3.55;;
20154;SDS011;10238;49.556;10.956;2024-03-22T15:56:38;3.53;;;2.97;;
20154;SDS011;10238;49.556;10.956;2024-03-22T15:59:25;4.75;;;2.60;;
20154;SDS011;10238;49.556;10.956;2024-03-22T16:02:12;5.80;;;3.53;;
20154;SDS011;10238;49.556;10.956;2024-03-22T16:04:59;5.25;;;3.20;;
20154;SDS011;10238;49.556;10.956;2024-03-22T16:07:45;6.57;;;3.78;;
20154;SDS011;10238;49.556;10.956;2024-03-22T16:10:32;5.00;;;3.33;;
20154;SDS011;10238;49.556;10.956;2024-03-22T16:13:18;4.03;;;3.28;;
20154;SDS011;10238;49.556;10.956;2024-03-22T16:16:05;4.75;;;3.50;;
20154;SDS011;10238;49.556;10.956;2024-03-22T16:18:52;4.65;;;3.25;;